Time;durP1;ratioP1;P1;durP2;ratioP2;P2;SDS_P1;SDS_P2;PMS_P1;PMS_P2;Temp;Humidity;BMP_temperature;BMP_pressure;BME280_temperature;BME280_humidity;BME280_pressure;Samples;Min_cycle;Max_cycle;Signal;HPM_P1;HPM_P2
2021/11/13 00:00:52;;;;;;;104.60;47.70;;;;;;;4.88;72.69;99394.58;102874;1319;96575;-75
2021/11/13 00:03:20;;;;;;;100.50;46.20;;;;;;;4.89;72.69;99387.50;102832;1322;111481;-76
2021/11/13 00:05:49;;;;;;;98.80;45.10;;;;;;;4.89;72.69;99386.10;102981;1319;97901;-77
2021/11/13 00:08:17;;;;;;;98.60;44.80;;;;;;;4.89;72.73;99383.81;102788;1325;108311;-75
2021/11/13 00:10:47;;;;;;;97.70;47.40;;;;;;;4.90;72.72;99381.30;102673;1325;98015;-75
2021/11/13 00:13:15;;;;;;;99.10;45.50;;;;;;;4.90;72.88;99381.45;102805;1322;97953;-75
2021/11/13 00:15:43;;;;;;;91.10;44.20;;;;;;;4.93;72.72;99378.37;102842;1319;111250;-74
2021/11/13 00:18:11;;;;;;;94.90;45.00;;;;;;;4.92;72.72;99375.21;102857;1322;98518;-77
2021/11/13 00:20:39;;;;;;;93.10;45.50;;;;;;;4.91;72.59;99372.63;102873;1323;107787;-77
2021/11/13 00:23:07;;;;;;;94.60;46.40;;;;;;;4.90;72.74;99376.05;102985;1319;97932;-77
2021/11/13 00:25:36;;;;;;;98.00;47.70;;;;;;;4.90;72.87;99373.90;102786;1324;97908;-75
2021/11/13 00:28:04;;;;;;;91.00;46.90;;;;;;;4.92;72.85;99373.64;102971;1322;109418;-75
2021/11/13 00:30:32;;;;;;;92.70;46.50;;;;;;;4.94;72.80;99367.25;102652;1322;95336;-75
2021/11/13 00:33:02;;;;;;;94.10;46.40;;;;;;;4.94;72.95;99363.90;102771;1324;107859;-75
2021/11/13 00:35:30;;;;;;;88.60;45.60;;;;;;;4.95;72.94;99365.08;102851;1319;97940;-74
2021/11/13 00:37:58;;;;;;;88.10;46.50;;;;;;;4.96;72.73;99366.09;102873;1319;95970;-74
2021/11/13 00:40:27;;;;;;;91.50;45.70;;;;;;;4.97;72.78;99368.00;102867;1322;110127;-75
2021/11/13 00:42:55;;;;;;;90.30;47.30;;;;;;;4.98;72.89;99367.94;102934;1322;98619;-74
2021/11/13 00:45:23;;;;;;;88.00;44.70;;;;;;;4.99;72.91;99367.70;102827;1319;108171;-75
2021/11/13 00:47:51;;;;;;;92.20;44.60;;;;;;;4.99;73.03;99367.01;102855;1318;99076;-76
2021/11/13 00:50:20;;;;;;;94.60;45.40;;;;;;;5.00;72.84;99367.85;102880;1320;97929;-75
2021/11/13 00:52:47;;;;;;;85.40;43.70;;;;;;;4.99;72.78;99364.37;102710;1319;110477;-74
2021/11/13 00:55:17;;;;;;;91.50;46.20;;;;;;;4.98;72.91;99357.73;102792;1318;97080;-74
2021/11/13 00:57:47;;;;;;;90.60;47.20;;;;;;;5.00;73.04;99348.00;102894;1319;109041;-74
2021/11/13 01:00:18;;;;;;;94.30;45.70;;;;;;;5.01;72.97;99340.55;102861;1320;97913;-74
2021/11/13 01:02:47;;;;;;;92.90;44.30;;;;;;;5.01;72.81;99338.09;102943;1319;98060;-74
2021/11/13 01:05:15;;;;;;;93.20;46.30;;;;;;;5.00;72.83;99333.41;102825;1318;109745;-75
2021/11/13 01:07:44;;;;;;;87.30;43.90;;;;;;;4.99;72.95;99334.34;102889;1320;97999;-74
2021/11/13 01:10:16;;;;;;;94.70;46.20;;;;;;;4.99;72.89;99336.44;102887;1319;107466;-74
2021/11/13 01:12:47;;;;;;;86.10;45.00;;;;;;;5.00;72.98;99335.88;102873;1318;95924;-74
2021/11/13 01:15:18;;;;;;;92.80;46.80;;;;;;;4.99;72.88;99335.37;102864;1318;97989;-74
2021/11/13 01:17:48;;;;;;;95.30;46.40;;;;;;;4.98;72.82;99334.54;102846;1319;111311;-75
2021/11/13 01:20:18;;;;;;;88.20;44.60;;;;;;;4.98;72.98;99333.13;102891;1320;97905;-75
2021/11/13 01:22:48;;;;;;;90.80;45.60;;;;;;;4.99;72.92;99331.52;102901;1319;109211;-74
2021/11/13 01:25:16;;;;;;;88.00;45.00;;;;;;;4.98;72.98;99322.41;102885;1319;96616;-74
2021/11/13 01:27:45;;;;;;;86.40;43.60;;;;;;;4.98;73.01;99318.91;102882;1318;95591;-73
2021/11/13 01:30:14;;;;;;;88.90;44.40;;;;;;;4.98;72.93;99314.35;102761;1321;111473;-75
2021/11/13 01:32:43;;;;;;;89.80;46.10;;;;;;;4.98;72.99;99313.81;102963;1318;97907;-75
2021/11/13 01:35:12;;;;;;;83.40;43.30;;;;;;;4.98;72.99;99313.30;102840;1318;107850;-74
2021/11/13 01:37:41;;;;;;;86.70;43.60;;;;;;;4.98;73.03;99308.20;102926;1320;97912;-73
2021/11/13 01:40:13;;;;;;;87.20;43.70;;;;;;;4.99;72.96;99303.06;102887;1319;95436;-73
2021/11/13 01:42:43;;;;;;;86.40;43.10;;;;;;;4.98;73.01;99302.40;102914;1318;111450;-73
2021/11/13 01:45:12;;;;;;;84.70;44.30;;;;;;;4.98;73.10;99299.06;102943;1318;97977;-74
2021/11/13 01:47:40;;;;;;;83.50;43.50;;;;;;;5.00;73.13;99299.86;102907;1320;107864;-73
2021/11/13 01:50:20;;;;;;;82.90;44.50;;;;;;;5.00;73.10;99293.67;102918;1322;98018;-73
2021/11/13 01:52:49;;;;;;;85.80;41.50;;;;;;;5.00;73.12;99300.17;102943;1320;98490;-74
2021/11/13 01:55:20;;;;;;;83.50;43.40;;;;;;;5.00;72.89;99300.56;102835;1319;111238;-74
2021/11/13 01:57:48;;;;;;;83.70;42.50;;;;;;;5.00;73.09;99303.54;102900;1325;98581;-75
2021/11/13 02:00:25;;;;;;;91.20;43.50;;;;;;;5.00;73.23;99299.32;102898;1320;107843;-75
2021/11/13 02:02:54;;;;;;;83.70;43.60;;;;;;;4.99;73.10;99296.00;102648;1318;99911;-74
2021/11/13 02:05:22;;;;;;;85.20;43.10;;;;;;;5.00;73.09;99293.70;102912;1322;98984;-76
2021/11/13 02:07:49;;;;;;;77.30;41.00;;;;;;;5.00;73.00;99299.85;102705;1319;111986;-75
2021/11/13 02:10:19;;;;;;;77.40;41.10;;;;;;;4.99;73.10;99295.85;102872;1320;97920;-75
2021/11/13 02:12:47;;;;;;;75.20;41.20;;;;;;;4.99;73.06;99296.36;102808;1318;107833;-76
2021/11/13 02:15:15;;;;;;;78.90;42.50;;;;;;;5.00;73.16;99289.30;102738;1318;98012;-74
2021/11/13 02:17:44;;;;;;;84.80;43.20;;;;;;;5.01;73.12;99285.40;102958;1319;97882;-75
2021/11/13 02:20:32;;;;;;;91.30;43.50;;;;;;;5.02;73.15;99286.19;102919;1319;111481;-74
2021/11/13 02:23:10;;;;;;;95.30;45.00;;;;;;;5.01;73.13;99287.67;102905;1319;95242;-74
2021/11/13 02:25:39;;;;;;;89.00;44.00;;;;;;;4.99;73.04;99285.65;102660;1322;107860;-74
2021/11/13 02:28:11;;;;;;;84.40;42.30;;;;;;;4.97;73.14;99276.93;102889;1319;98017;-74
2021/11/13 02:30:39;;;;;;;82.20;41.60;;;;;;;4.98;73.23;99279.01;102809;1319;97991;-75
2021/11/13 02:33:09;;;;;;;83.40;42.50;;;;;;;5.00;73.16;99273.32;102877;1319;111322;-74
2021/11/13 02:35:38;;;;;;;89.00;44.10;;;;;;;5.02;73.24;99264.44;102899;1319;97928;-75
2021/11/13 02:38:29;;;;;;;86.40;41.20;;;;;;;5.03;73.18;99261.21;102891;1318;107789;-74
2021/11/13 02:41:00;;;;;;;72.30;37.90;;;;;;;5.01;73.20;99263.21;102833;1319;97840;-74
2021/11/13 02:43:30;;;;;;;73.30;37.40;;;;;;;4.95;72.88;99265.64;102820;1318;157407;-73
2021/11/13 02:46:01;;;;;;;76.00;41.50;;;;;;;4.80;72.97;99262.77;102823;1322;111565;-73
2021/11/13 02:48:33;;;;;;;79.80;40.50;;;;;;;4.76;73.21;99263.33;102747;1318;97878;-72
2021/11/13 02:51:01;;;;;;;75.20;41.80;;;;;;;4.77;73.20;99266.77;102692;1318;107836;-75
2021/11/13 02:53:30;;;;;;;74.50;40.00;;;;;;;4.79;73.24;99266.87;102877;1318;98056;-73
2021/11/13 02:56:01;;;;;;;79.80;41.20;;;;;;;4.80;73.23;99262.60;102837;1319;97230;-76
2021/11/13 02:58:30;;;;;;;67.00;35.00;;;;;;;4.81;73.17;99260.10;102945;1322;111597;-73
2021/11/13 03:01:06;;;;;;;70.80;37.80;;;;;;;4.73;73.00;99257.12;102881;1318;97918;-74
2021/11/13 03:03:34;;;;;;;72.60;39.00;;;;;;;4.57;73.09;99257.14;102910;1318;106120;-72
2021/11/13 03:06:09;;;;;;;76.50;41.30;;;;;;;4.53;73.10;99252.77;102889;1319;97908;-73
2021/11/13 03:08:39;;;;;;;67.90;35.70;;;;;;;4.52;73.13;99249.63;102854;1322;97913;-73
2021/11/13 03:11:10;;;;;;;70.40;38.10;;;;;;;4.49;73.22;99254.16;102681;1322;111573;-75
2021/11/13 03:13:41;;;;;;;72.70;38.70;;;;;;;4.38;73.36;99257.11;102665;1325;98301;-73
2021/11/13 03:16:10;;;;;;;74.70;37.90;;;;;;;4.33;73.24;99259.60;102784;1321;107800;-74
2021/11/13 03:18:38;;;;;;;72.00;39.10;;;;;;;4.32;73.40;99262.81;102861;1319;97908;-74
2021/11/13 03:21:08;;;;;;;71.10;37.80;;;;;;;4.36;73.55;99263.02;102897;1319;97979;-75
2021/11/13 03:23:39;;;;;;;76.30;40.80;;;;;;;4.41;73.60;99265.05;102727;1322;111957;-75
2021/11/13 03:26:13;;;;;;;83.50;42.90;;;;;;;4.45;73.59;99259.10;102823;1319;97964;-76
2021/11/13 03:28:46;;;;;;;79.40;39.70;;;;;;;4.50;73.57;99257.46;102726;1318;107982;-75
2021/11/13 03:31:15;;;;;;;85.20;42.60;;;;;;;4.51;73.53;99251.95;102902;1318;97939;-75
2021/11/13 03:33:44;;;;;;;88.50;41.90;;;;;;;4.53;73.64;99250.81;102989;1318;98003;-74
2021/11/13 03:36:12;;;;;;;84.00;39.90;;;;;;;4.53;73.50;99255.20;102895;1318;111290;-74
2021/11/13 03:38:40;;;;;;;89.20;42.10;;;;;;;4.53;73.39;99261.91;102880;1319;97893;-76
2021/11/13 03:41:10;;;;;;;87.90;41.60;;;;;;;4.53;73.46;99259.26;102788;1319;107611;-76
2021/11/13 03:43:38;;;;;;;82.20;39.10;;;;;;;4.54;73.36;99257.65;102817;1322;97978;-76
2021/11/13 03:46:08;;;;;;;77.90;38.30;;;;;;;4.53;73.56;99256.09;102891;1319;97996;-75
2021/11/13 03:48:35;;;;;;;84.30;38.50;;;;;;;4.52;73.53;99255.23;102801;1319;112435;-75
2021/11/13 03:51:05;;;;;;;76.80;38.10;;;;;;;4.49;73.23;99256.09;102893;1319;97969;-75
2021/11/13 03:53:33;;;;;;;81.10;35.60;;;;;;;4.44;73.37;99251.92;102924;1318;108144;-76
2021/11/13 03:56:01;;;;;;;79.50;38.20;;;;;;;4.38;73.42;99254.81;102862;1318;95326;-75
2021/11/13 03:58:29;;;;;;;79.10;35.20;;;;;;;4.33;73.50;99255.71;102904;1319;98772;-75
2021/11/13 04:00:57;;;;;;;74.00;36.50;;;;;;;4.32;73.44;99259.27;102842;1319;111530;-75
2021/11/13 04:03:26;;;;;;;71.90;35.60;;;;;;;4.30;73.50;99261.30;102900;1323;97869;-75
2021/11/13 04:05:55;;;;;;;70.50;34.70;;;;;;;4.30;73.42;99260.61;102849;1319;107875;-75
2021/11/13 04:08:23;;;;;;;70.30;31.80;;;;;;;4.28;73.41;99258.06;102932;1318;97943;-76
2021/11/13 04:10:51;;;;;;;68.70;34.20;;;;;;;4.19;73.28;99253.87;102987;1318;97980;-75
2021/11/13 04:13:19;;;;;;;69.20;32.60;;;;;;;4.15;73.16;99250.54;103076;1322;111531;-76
2021/11/13 04:15:47;;;;;;;79.30;31.40;;;;;;;4.14;73.20;99253.91;102989;1319;95203;-76
2021/11/13 04:18:15;;;;;;;66.50;29.90;;;;;;;4.09;73.08;99259.06;102944;1318;107876;-76
2021/11/13 04:20:42;;;;;;;65.70;32.20;;;;;;;3.95;73.09;99258.92;102963;1319;95214;-76
2021/11/13 04:23:10;;;;;;;71.70;32.50;;;;;;;3.91;73.23;99255.59;103098;1319;97928;-75
2021/11/13 04:25:38;;;;;;;63.70;29.40;;;;;;;3.88;73.30;99249.04;103064;1322;111482;-76
2021/11/13 04:28:06;;;;;;;59.80;31.00;;;;;;;3.84;73.22;99247.30;102979;1318;95240;-76
2021/11/13 04:30:34;;;;;;;66.50;31.00;;;;;;;3.82;73.27;99246.16;103012;1319;108054;-76
2021/11/13 04:33:02;;;;;;;59.20;29.70;;;;;;;3.80;73.18;99239.05;102988;1319;97999;-76
2021/11/13 04:38:03;;;;;;;69.10;29.40;;;;;;;3.70;73.20;99240.48;102947;1319;111460;-75
2021/11/13 04:40:35;;;;;;;52.50;23.00;;;;;;;3.67;73.26;99239.92;103054;1319;97982;-75
2021/11/13 04:43:03;;;;;;;58.80;27.80;;;;;;;3.64;73.41;99238.33;103064;1323;107876;-75
2021/11/13 04:45:32;;;;;;;59.20;30.40;;;;;;;3.62;73.12;99238.74;103103;1323;95297;-75
2021/11/13 04:48:00;;;;;;;53.40;28.60;;;;;;;3.58;73.64;99238.00;103032;1319;97418;-75
2021/11/13 04:50:31;;;;;;;56.40;30.30;;;;;;;3.59;73.66;99239.57;102976;1319;109735;-76
2021/11/13 04:52:59;;;;;;;58.30;28.70;;;;;;;3.61;73.51;99236.70;102800;1319;98736;-75
2021/11/13 04:55:27;;;;;;;61.10;29.60;;;;;;;3.60;73.56;99237.05;103028;1326;107848;-75
2021/11/13 04:57:55;;;;;;;51.90;27.20;;;;;;;3.57;73.47;99238.42;103082;1319;97943;-74
2021/11/13 05:00:26;;;;;;;56.10;27.00;;;;;;;3.54;73.45;99242.23;103052;1322;97973;-73
2021/11/13 05:02:56;;;;;;;53.90;27.20;;;;;;;3.50;73.29;99244.63;103056;1320;111612;-73
2021/11/13 05:05:25;;;;;;;51.50;26.70;;;;;;;3.47;73.53;99254.10;102925;1325;98083;-74
2021/11/13 05:07:52;;;;;;;55.30;27.50;;;;;;;3.42;73.39;99257.05;102951;1319;107871;-74
2021/11/13 05:10:20;;;;;;;56.20;28.40;;;;;;;3.42;73.52;99251.83;102871;1322;97872;-75
2021/11/13 05:12:48;;;;;;;49.30;27.00;;;;;;;3.43;73.72;99248.80;102875;1319;97979;-75
2021/11/13 05:15:17;;;;;;;52.10;27.00;;;;;;;3.42;73.45;99245.14;103077;1318;111495;-74
2021/11/13 05:17:47;;;;;;;52.50;26.70;;;;;;;3.42;73.52;99246.91;102997;1319;98125;-77
2021/11/13 05:20:18;;;;;;;52.20;26.40;;;;;;;3.40;73.65;99247.84;102880;1319;106166;-76
2021/11/13 05:22:49;;;;;;;55.50;28.30;;;;;;;3.41;73.86;99250.48;102748;1325;95453;-77
2021/11/13 05:25:19;;;;;;;58.20;29.70;;;;;;;3.42;73.68;99247.43;102979;1319;97909;-76
2021/11/13 05:27:49;;;;;;;52.80;27.60;;;;;;;3.42;73.73;99248.47;102986;1319;111609;-75
2021/11/13 05:30:19;;;;;;;56.20;28.60;;;;;;;3.43;73.54;99250.90;103060;1319;97744;-75
2021/11/13 05:32:48;;;;;;;55.40;27.30;;;;;;;3.43;73.58;99254.40;102937;1322;107874;-76
2021/11/13 05:35:18;;;;;;;54.40;28.20;;;;;;;3.44;73.70;99255.60;103021;1318;97918;-75
2021/11/13 05:37:51;;;;;;;56.40;28.60;;;;;;;3.48;73.76;99253.52;103129;1326;98037;-75
2021/11/13 05:40:19;;;;;;;53.80;27.80;;;;;;;3.49;73.82;99251.36;103094;1318;111469;-75
2021/11/13 05:42:52;;;;;;;54.70;28.30;;;;;;;3.47;73.44;99256.51;103129;1318;95226;-74
2021/11/13 05:45:20;;;;;;;54.70;28.20;;;;;;;3.45;73.78;99256.27;102981;1318;108053;-75
2021/11/13 05:47:49;;;;;;;53.10;26.80;;;;;;;3.44;73.86;99256.11;103100;1319;97916;-74
2021/11/13 05:50:19;;;;;;;54.10;27.80;;;;;;;3.38;73.69;99255.29;103082;1322;95348;-71
2021/11/13 05:52:49;;;;;;;54.40;26.80;;;;;;;3.35;73.41;99255.77;103067;1318;112907;-70
2021/11/13 05:55:19;;;;;;;54.20;27.00;;;;;;;3.33;73.55;99258.13;103111;1318;97846;-70
2021/11/13 05:57:47;;;;;;;52.40;28.20;;;;;;;3.34;73.67;99258.28;103010;1323;107648;-72
2021/11/13 06:00:18;;;;;;;54.70;26.40;;;;;;;3.34;73.89;99261.23;102864;1318;98031;-75
2021/11/13 06:02:47;;;;;;;51.90;26.30;;;;;;;3.34;73.84;99256.88;102930;1318;98490;-75
2021/11/13 06:05:16;;;;;;;52.40;27.30;;;;;;;3.33;73.60;99257.41;102937;1319;111984;-76
2021/11/13 06:07:46;;;;;;;53.60;26.30;;;;;;;3.32;73.72;99258.87;103077;1322;97992;-74
2021/11/13 06:10:16;;;;;;;54.50;27.60;;;;;;;3.33;73.87;99264.80;102986;1319;106685;-74
2021/11/13 06:12:44;;;;;;;55.30;27.30;;;;;;;3.32;73.78;99270.62;102918;1315;97918;-76
2021/11/13 06:15:13;;;;;;;51.60;27.90;;;;;;;3.31;73.61;99269.79;102954;1318;97938;-75
2021/11/13 06:17:42;;;;;;;50.70;26.60;;;;;;;3.33;73.89;99271.98;103027;1318;109180;-75
2021/11/13 06:20:10;;;;;;;51.30;26.40;;;;;;;3.34;73.62;99274.41;103034;1318;95204;-75
2021/11/13 06:22:39;;;;;;;45.90;24.20;;;;;;;3.36;74.00;99274.51;102996;1318;108058;-80
2021/11/13 06:25:09;;;;;;;47.60;25.30;;;;;;;3.38;74.00;99271.79;103110;1318;98021;-78
2021/11/13 06:27:39;;;;;;;49.00;26.40;;;;;;;3.39;73.93;99271.38;102986;1323;98004;-75
2021/11/13 06:30:11;;;;;;;50.50;26.60;;;;;;;3.41;74.08;99273.92;102966;1319;111562;-72
2021/11/13 06:32:41;;;;;;;48.60;25.60;;;;;;;3.44;73.97;99271.56;102952;1319;98009;-74
2021/11/13 06:35:10;;;;;;;45.50;25.10;;;;;;;3.42;73.69;99268.11;102920;1319;106965;-78
2021/11/13 06:37:39;;;;;;;52.20;26.40;;;;;;;3.41;73.82;99269.02;102952;1318;97977;-76
2021/11/13 06:40:08;;;;;;;51.00;26.30;;;;;;;3.42;73.95;99266.37;103049;1322;95310;-77
2021/11/13 06:42:38;;;;;;;53.60;28.80;;;;;;;3.42;73.54;99265.30;102913;1325;112464;-76
2021/11/13 06:45:09;;;;;;;51.40;28.60;;;;;;;3.43;73.82;99266.67;102966;1319;98262;-76
2021/11/13 06:47:39;;;;;;;52.40;28.00;;;;;;;3.43;73.89;99267.91;102968;1323;108024;-77
2021/11/13 06:50:10;;;;;;;56.60;29.60;;;;;;;3.45;73.70;99267.14;102986;1318;98000;-75
2021/11/13 06:52:38;;;;;;;56.30;28.30;;;;;;;3.45;73.85;99272.38;102790;1318;97934;-81
2021/11/13 06:55:07;;;;;;;52.70;27.70;;;;;;;3.43;73.52;99270.91;102992;1319;112226;-74
2021/11/13 06:57:35;;;;;;;46.50;25.70;;;;;;;3.37;73.69;99267.79;103040;1318;97982;-75
2021/11/13 07:00:12;;;;;;;46.90;25.50;;;;;;;3.32;73.45;99266.41;102977;1319;107897;-76
2021/11/13 07:02:40;;;;;;;48.80;26.20;;;;;;;3.31;73.69;99272.77;103009;1319;97998;-75
2021/11/13 07:05:09;;;;;;;47.60;26.30;;;;;;;3.33;73.75;99271.61;103029;1319;97962;-76
2021/11/13 07:07:38;;;;;;;45.70;25.90;;;;;;;3.36;73.93;99271.35;102960;1318;111651;-73
2021/11/13 07:10:13;;;;;;;44.90;24.70;;;;;;;3.38;73.94;99273.02;102957;1318;96533;-77
2021/11/13 07:12:42;;;;;;;47.10;24.50;;;;;;;3.40;73.67;99274.17;103088;1319;107477;-75
2021/11/13 07:15:12;;;;;;;63.30;29.00;;;;;;;3.42;73.66;99274.41;102950;1319;98020;-78
2021/11/13 07:17:41;;;;;;;46.00;26.30;;;;;;;3.51;74.04;99270.91;102950;1325;97999;-76
2021/11/13 07:20:11;;;;;;;49.00;27.30;;;;;;;3.58;74.09;99271.33;102960;1318;111546;-74
2021/11/13 07:22:41;;;;;;;50.10;26.90;;;;;;;3.65;73.81;99269.83;102836;1318;97995;-72
2021/11/13 07:25:14;;;;;;;50.30;26.70;;;;;;;3.69;73.71;99267.56;103066;1319;107822;-74
2021/11/13 07:27:46;;;;;;;53.20;30.00;;;;;;;3.72;73.74;99269.20;102914;1320;97871;-76
2021/11/13 07:30:19;;;;;;;55.70;30.30;;;;;;;3.76;73.96;99265.36;102949;1324;97864;-74
2021/11/13 07:32:48;;;;;;;59.10;31.20;;;;;;;3.79;73.93;99265.94;103009;1326;111486;-76
2021/11/13 07:35:17;;;;;;;59.70;32.10;;;;;;;3.85;73.94;99263.73;102792;1326;97963;-78
2021/11/13 07:37:45;;;;;;;53.10;28.30;;;;;;;3.94;74.06;99264.94;103008;1324;106994;-76
2021/11/13 07:40:13;;;;;;;54.30;29.80;;;;;;;4.00;74.00;99267.31;102980;1319;97914;-75
2021/11/13 07:42:41;;;;;;;53.10;28.50;;;;;;;4.08;73.90;99267.88;102844;1325;96632;-76
2021/11/13 07:45:09;;;;;;;53.20;29.00;;;;;;;4.14;73.88;99265.14;102817;1319;111519;-80
2021/11/13 07:47:41;;;;;;;51.70;29.30;;;;;;;4.21;73.96;99262.91;102985;1318;98656;-81
2021/11/13 07:50:11;;;;;;;49.70;27.50;;;;;;;4.25;73.93;99261.70;102978;1319;107822;-78
2021/11/13 07:52:42;;;;;;;47.50;26.20;;;;;;;4.32;73.94;99259.30;102840;1322;96677;-82
2021/11/13 07:55:12;;;;;;;50.10;26.70;;;;;;;4.40;73.96;99262.13;102905;1322;98117;-79
2021/11/13 07:57:40;;;;;;;57.00;29.90;;;;;;;4.51;74.05;99258.66;102942;1318;111499;-78
2021/11/13 08:00:12;;;;;;;53.90;29.00;;;;;;;4.62;73.87;99255.36;102871;1318;97881;-80
2021/11/13 08:02:41;;;;;;;54.30;29.70;;;;;;;4.61;73.79;99256.62;102869;1318;107063;-77
2021/11/13 08:05:13;;;;;;;53.20;29.30;;;;;;;4.58;73.60;99260.95;102802;1322;97971;-79
2021/11/13 08:07:43;;;;;;;52.40;28.70;;;;;;;4.46;73.45;99256.39;102872;1318;98577;-76
2021/11/13 08:10:13;;;;;;;53.50;27.10;;;;;;;4.40;73.71;99256.33;102991;1318;112841;-82
2021/11/13 08:12:43;;;;;;;53.80;29.60;;;;;;;4.40;73.68;99255.26;102747;1320;97944;-78
2021/11/13 08:15:12;;;;;;;54.20;30.50;;;;;;;4.39;73.48;99252.69;102913;1319;108037;-77
2021/11/13 08:17:43;;;;;;;56.40;31.20;;;;;;;4.35;73.62;99251.09;102862;1319;98026;-77
2021/11/13 08:20:15;;;;;;;55.80;30.60;;;;;;;4.43;73.71;99248.09;102983;1319;97981;-77
2021/11/13 08:22:45;;;;;;;55.90;29.00;;;;;;;4.56;73.87;99247.52;103012;1322;109528;-76
2021/11/13 08:25:15;;;;;;;52.30;29.30;;;;;;;4.68;73.90;99248.72;102997;1326;97986;-77
2021/11/13 08:27:43;;;;;;;50.20;28.30;;;;;;;4.78;73.99;99246.89;103006;1319;107662;-78
2021/11/13 08:30:16;;;;;;;48.20;28.00;;;;;;;4.87;73.88;99247.70;102950;1322;97909;-82
2021/11/13 08:32:47;;;;;;;51.40;28.20;;;;;;;4.95;73.78;99248.94;102846;1322;97968;-82
2021/11/13 08:35:18;;;;;;;50.80;29.80;;;;;;;5.03;73.85;99249.10;103069;1319;110506;-78
2021/11/13 08:37:46;;;;;;;46.40;26.30;;;;;;;5.11;73.85;99249.06;102998;1319;98157;-71
2021/11/13 08:40:17;;;;;;;50.60;28.80;;;;;;;5.18;73.82;99245.94;102833;1325;106850;-79
2021/11/13 08:42:45;;;;;;;49.00;28.60;;;;;;;5.30;74.00;99249.19;102927;1318;97989;-78
2021/11/13 08:45:15;;;;;;;46.40;27.30;;;;;;;5.50;74.01;99242.30;103007;1319;98015;-73
2021/11/13 08:47:46;;;;;;;47.30;28.00;;;;;;;5.75;74.26;99240.88;102976;1323;111475;-69
2021/11/13 08:50:19;;;;;;;48.80;28.70;;;;;;;6.03;74.05;99244.26;102990;1319;97962;-73
2021/11/13 08:52:53;;;;;;;49.70;29.10;;;;;;;6.26;74.17;99245.88;102991;1319;107945;-69
2021/11/13 08:55:25;;;;;;;46.80;28.30;;;;;;;6.44;74.25;99243.92;102968;1319;98025;-69
2021/11/13 08:57:55;;;;;;;48.50;27.80;;;;;;;6.61;73.97;99239.84;102938;1322;96506;-68
2021/11/13 09:00:36;;;;;;;46.30;27.70;;;;;;;6.88;73.92;99233.48;102947;1318;113375;-69
2021/11/13 09:03:10;;;;;;;129.20;82.70;;;;;;;7.38;73.67;99235.28;102858;1322;97912;-70
2021/11/13 09:05:40;;;;;;;;;;;;;;;7.92;73.71;99235.90;103040;1318;107780;-70
2021/11/13 09:08:10;;;;;;;49.30;29.40;;;;;;;8.47;73.60;99230.35;102743;1321;97319;-70
2021/11/13 09:10:39;;;;;;;45.90;26.90;;;;;;;9.01;73.54;99227.88;102956;1322;97965;-70
2021/11/13 09:13:10;;;;;;;44.50;26.50;;;;;;;9.42;73.61;99223.88;102975;1318;112106;-70
2021/11/13 09:15:40;;;;;;;40.00;25.30;;;;;;;9.60;73.47;99221.81;102808;1323;97945;-69
2021/11/13 09:18:09;;;;;;;44.30;27.90;;;;;;;9.75;73.46;99220.98;103023;1322;108609;-70
2021/11/13 09:20:41;;;;;;;42.70;26.40;;;;;;;9.91;73.40;99218.19;102804;1319;97887;-69
2021/11/13 09:23:13;;;;;;;42.50;24.60;;;;;;;10.07;73.51;99216.39;102777;1318;96568;-70
2021/11/13 09:25:46;;;;;;;41.40;26.50;;;;;;;10.22;73.45;99212.75;102931;1318;111007;-70
2021/11/13 09:28:15;;;;;;;40.90;25.40;;;;;;;10.33;73.36;99214.63;102927;1319;98001;-72
2021/11/13 09:30:46;;;;;;;41.00;26.40;;;;;;;10.38;73.23;99216.77;102901;1318;107867;-68
2021/11/13 09:33:15;;;;;;;39.50;24.40;;;;;;;10.49;73.36;99212.65;102672;1326;97892;-68
2021/11/13 09:35:45;;;;;;;39.00;23.70;;;;;;;10.58;73.20;99215.02;102871;1318;97889;-69
2021/11/13 09:38:27;;;;;;;40.10;25.10;;;;;;;10.60;73.22;99215.26;102852;1319;112255;-69
2021/11/13 09:40:58;;;;;;;42.10;25.60;;;;;;;10.51;72.96;99213.04;102861;1318;98629;-70
2021/11/13 09:43:29;;;;;;;42.00;25.30;;;;;;;10.49;73.06;99203.27;102855;1319;108271;-70
2021/11/13 09:46:00;;;;;;;39.70;25.60;;;;;;;10.40;72.93;99197.27;102942;1318;96481;-70
2021/11/13 09:48:31;;;;;;;43.90;26.20;;;;;;;10.39;72.93;99198.27;102890;1318;97069;-72
2021/11/13 09:51:02;;;;;;;42.30;25.90;;;;;;;10.45;73.12;99198.05;102892;1325;112995;-76
2021/11/13 09:53:31;;;;;;;42.30;27.00;;;;;;;10.50;72.97;99193.25;102710;1326;96018;-69
2021/11/13 09:56:02;;;;;;;44.20;27.40;;;;;;;10.57;73.08;99189.40;102935;1322;106869;-72
2021/11/13 09:58:32;;;;;;;43.10;27.30;;;;;;;10.65;73.02;99188.15;103040;1319;97919;-77
2021/11/13 10:01:00;;;;;;;45.20;28.30;;;;;;;10.73;72.93;99182.25;103016;1319;97979;-74
2021/11/13 10:03:32;;;;;;;42.80;27.50;;;;;;;10.80;72.83;99176.09;103044;1319;111501;-74
2021/11/13 10:06:06;;;;;;;46.00;28.90;;;;;;;10.83;72.75;99174.06;103026;1318;97909;-74
2021/11/13 10:08:34;;;;;;;42.10;26.80;;;;;;;10.91;72.66;99174.58;102888;1318;107508;-74
2021/11/13 10:11:08;;;;;;;43.00;28.20;;;;;;;10.99;72.89;99178.04;102983;1319;97883;-76
2021/11/13 10:13:44;;;;;;;45.00;28.00;;;;;;;11.05;72.76;99174.80;102953;1319;97854;-73
2021/11/13 10:16:28;;;;;;;41.00;26.00;;;;;;;11.08;72.55;99173.15;102964;1322;111529;-74
2021/11/13 10:18:57;;;;;;;44.40;27.90;;;;;;;11.13;72.48;99166.09;103029;1319;95223;-74
2021/11/13 10:21:30;;;;;;;44.40;29.10;;;;;;;11.18;72.61;99158.60;102966;1319;107776;-75
2021/11/13 10:24:16;;;;;;;45.20;27.30;;;;;;;11.26;72.47;99152.84;102906;1319;97907;-75
2021/11/13 10:26:47;;;;;;;47.00;29.50;;;;;;;11.35;72.38;99150.65;102911;1318;97791;-81
2021/11/13 10:29:21;;;;;;;;;;;;;;;11.41;72.34;99147.80;102901;1319;109943;-79
2021/11/13 10:31:52;;;;;;;47.40;31.50;;;;;;;11.42;72.07;99148.08;102935;1319;98007;-75
2021/11/13 10:34:36;;;;;;;51.80;31.90;;;;;;;11.46;72.06;99143.73;102904;1322;108458;-75
2021/11/13 10:37:31;;;;;;;48.60;31.20;;;;;;;11.53;72.10;99144.34;102992;1319;97913;-75
2021/11/13 10:40:03;;;;;;;47.70;32.60;;;;;;;11.58;71.87;99140.38;102948;1319;96994;-75
2021/11/13 10:42:33;;;;;;;53.80;34.50;;;;;;;11.60;71.92;99141.98;102843;1318;135263;-77
2021/11/13 10:45:03;;;;;;;50.60;33.50;;;;;;;11.63;71.81;99141.61;102971;1320;97993;-78
2021/11/13 10:47:35;;;;;;;48.40;32.20;;;;;;;11.60;71.83;99134.91;102892;1319;107887;-77
2021/11/13 10:50:15;;;;;;;47.10;30.30;;;;;;;11.58;71.68;99134.88;102920;1324;95300;-77
2021/11/13 10:53:12;;;;;;;46.50;30.60;;;;;;;11.57;71.65;99130.35;102948;1318;97954;-75
2021/11/13 10:56:01;;;;;;;48.90;30.00;;;;;;;11.65;71.56;99123.33;102975;1318;111469;-76
2021/11/13 10:58:33;;;;;;;42.10;27.50;;;;;;;11.71;71.43;99121.79;102976;1320;97761;-80
2021/11/13 11:01:07;;;;;;;46.30;27.90;;;;;;;11.82;71.81;99122.39;102761;1325;108528;-79
2021/11/13 11:03:42;;;;;;;44.80;29.30;;;;;;;11.96;71.90;99123.48;102923;1318;97995;-78
2021/11/13 11:06:22;;;;;;;47.30;30.50;;;;;;;12.05;71.64;99115.99;102943;1318;98464;-78
2021/11/13 11:08:52;;;;;;;45.10;28.80;;;;;;;12.14;71.60;99114.31;102936;1318;112192;-78
2021/11/13 11:11:34;;;;;;;50.50;31.10;;;;;;;12.20;71.46;99115.59;102976;1319;97966;-77
2021/11/13 11:14:15;;;;;;;45.70;29.00;;;;;;;12.23;71.10;99108.67;103093;1320;107544;-77
2021/11/13 11:16:48;;;;;;;46.30;30.80;;;;;;;12.28;71.24;99105.41;103083;1322;97979;-77
2021/11/13 11:19:22;;;;;;;45.90;30.10;;;;;;;12.33;71.22;99100.33;103094;1320;96582;-79
2021/11/13 11:21:56;;;;;;;48.20;30.80;;;;;;;12.37;71.01;99099.30;103041;1322;111418;-79
2021/11/13 11:24:28;;;;;;;47.00;31.00;;;;;;;12.39;71.07;99097.08;102976;1323;97919;-78
2021/11/13 11:27:09;;;;;;;48.40;31.00;;;;;;;12.41;70.91;99098.48;102880;1319;107977;-74
2021/11/13 11:29:48;;;;;;;47.20;31.30;;;;;;;12.40;70.76;99099.81;102975;1322;97935;-79